createdAt,value
2019-02-02T00:00:29.547Z,0.90
2019-02-02T00:02:58.018Z,1.10
2019-02-02T00:05:26.434Z,1.20
2019-02-02T00:07:54.854Z,1.30
2019-02-02T00:10:23.254Z,1.20
2019-02-02T00:12:51.663Z,1.10
2019-02-02T00:15:20.072Z,1.20
2019-02-02T00:17:48.494Z,1.20
2019-02-02T00:20:16.886Z,1.00
2019-02-02T00:22:45.276Z,0.90
2019-02-02T00:25:13.966Z,0.90
2019-02-02T00:27:42.365Z,0.90
2019-02-02T00:30:13.870Z,0.90
2019-02-02T00:32:42.276Z,0.80
2019-02-02T00:35:10.839Z,0.70
2019-02-02T00:37:39.720Z,0.80
2019-02-02T00:40:23.184Z,0.80
2019-02-02T00:42:51.677Z,1.00
2019-02-02T00:45:22.291Z,1.10
2019-02-02T00:47:51.543Z,1.20
2019-02-02T00:50:20.301Z,1.30
2019-02-02T00:52:48.887Z,1.40
2019-02-02T00:55:18.634Z,1.40
2019-02-02T00:57:53.419Z,1.50
2019-02-02T01:00:19.263Z,1.60
2019-02-02T01:02:48.037Z,1.60
2019-02-02T01:05:18.850Z,1.40
2019-02-02T01:07:47.495Z,1.30
2019-02-02T01:10:37.173Z,1.40
2019-02-02T01:13:06.327Z,1.40
2019-02-02T01:15:34.873Z,1.30
2019-02-02T01:18:03.314Z,1.40
2019-02-02T01:20:31.902Z,1.40
2019-02-02T01:23:00.460Z,1.40
2019-02-02T01:25:29.022Z,1.20
2019-02-02T01:28:05.030Z,1.10
2019-02-02T01:30:27.893Z,1.00
2019-02-02T01:32:56.311Z,0.90
2019-02-02T01:35:24.715Z,0.90
2019-02-02T01:37:53.164Z,1.00
2019-02-02T01:40:24.509Z,1.10
2019-02-02T01:42:53.052Z,1.10
2019-02-02T01:45:23.826Z,1.20
2019-02-02T01:47:52.389Z,1.10
2019-02-02T01:50:22.931Z,1.20
2019-02-02T01:52:51.528Z,1.30
2019-02-02T01:55:20.068Z,1.30
2019-02-02T01:57:48.477Z,1.30
2019-02-02T02:00:25.662Z,1.20
2019-02-02T02:02:54.188Z,1.30
2019-02-02T02:05:22.832Z,1.30
2019-02-02T02:07:51.392Z,1.10
2019-02-02T02:10:20.440Z,1.00
2019-02-02T02:12:49.015Z,1.00
2019-02-02T02:15:18.761Z,1.00
2019-02-02T02:17:48.635Z,0.90
2019-02-02T02:20:19.177Z,0.90
2019-02-02T02:22:49.027Z,0.90
2019-02-02T02:25:18.874Z,0.90
2019-02-02T02:27:47.354Z,1.00
2019-02-02T02:30:17.794Z,1.00
2019-02-02T02:32:46.332Z,1.10
2019-02-02T02:35:14.873Z,1.20
2019-02-02T02:37:43.541Z,1.20
2019-02-02T02:40:14.972Z,1.10
2019-02-02T02:42:43.433Z,1.20
2019-02-02T02:45:12.787Z,1.40
2019-02-02T02:47:41.272Z,1.50
2019-02-02T02:50:12.527Z,1.60
2019-02-02T02:52:40.976Z,1.50
2019-02-02T02:55:11.224Z,1.50
2019-02-02T02:57:39.637Z,1.40
2019-02-02T03:00:11.390Z,1.60
2019-02-02T03:02:39.771Z,1.70
2019-02-02T03:05:10.809Z,1.70
2019-02-02T03:07:39.353Z,1.80
2019-02-02T03:10:11.020Z,1.90
2019-02-02T03:12:39.416Z,1.70
2019-02-02T03:15:11.025Z,1.60
2019-02-02T03:17:39.549Z,1.70
2019-02-02T03:20:10.275Z,1.60
2019-02-02T03:22:38.763Z,1.60
2019-02-02T03:25:10.402Z,1.70
2019-02-02T03:27:38.884Z,1.70
2019-02-02T03:30:13.157Z,1.70
2019-02-02T03:32:41.864Z,1.70
2019-02-02T03:35:12.524Z,1.70
2019-02-02T03:37:40.993Z,1.80
2019-02-02T03:40:12.126Z,1.60
2019-02-02T03:42:40.678Z,1.50
2019-02-02T03:45:12.567Z,1.50
2019-02-02T03:47:40.983Z,1.60
2019-02-02T03:50:11.045Z,1.70
2019-02-02T03:52:39.508Z,1.80
2019-02-02T03:55:11.352Z,1.80
2019-02-02T03:57:40.032Z,1.70
2019-02-02T04:00:11.529Z,1.80
2019-02-02T04:02:39.968Z,1.70
2019-02-02T04:05:11.790Z,1.80
2019-02-02T04:07:40.195Z,1.70
2019-02-02T04:10:11.336Z,1.80
2019-02-02T04:12:39.801Z,1.70
2019-02-02T04:15:10.245Z,1.60
2019-02-02T04:17:38.676Z,1.70
2019-02-02T04:20:19.076Z,1.80
2019-02-02T04:22:47.728Z,2.00
2019-02-02T04:25:17.499Z,1.90
2019-02-02T04:27:45.897Z,1.90
2019-02-02T04:30:25.148Z,1.90
2019-02-02T04:32:53.614Z,1.90
2019-02-02T04:35:22.254Z,1.80
2019-02-02T04:37:50.745Z,1.90
2019-02-02T04:40:19.318Z,1.80
2019-02-02T04:42:47.795Z,1.90
2019-02-02T04:45:17.443Z,1.70
2019-02-02T04:47:46.076Z,1.60
2019-02-02T04:50:16.726Z,1.70
2019-02-02T04:52:45.207Z,1.80
2019-02-02T04:55:15.357Z,1.80
2019-02-02T04:57:43.835Z,1.90
2019-02-02T05:00:18.280Z,2.00
2019-02-02T05:02:46.680Z,1.80
2019-02-02T05:05:16.916Z,1.80
2019-02-02T05:07:45.560Z,1.80
2019-02-02T05:10:17.006Z,1.90
2019-02-02T05:12:45.480Z,1.90
2019-02-02T05:15:14.037Z,2.00
2019-02-02T05:17:42.510Z,2.10
2019-02-02T05:20:13.564Z,2.10
2019-02-02T05:22:42.120Z,2.00
2019-02-02T05:25:10.972Z,2.10
2019-02-02T05:27:39.470Z,2.10
2019-02-02T05:30:10.963Z,2.10
2019-02-02T05:32:39.394Z,1.90
2019-02-02T05:35:10.147Z,1.80
2019-02-02T05:37:38.553Z,1.80
2019-02-02T05:40:13.052Z,1.70
2019-02-02T05:42:41.602Z,1.70
2019-02-02T05:45:12.953Z,1.60
2019-02-02T05:47:41.369Z,1.70
2019-02-02T05:50:12.708Z,1.50
2019-02-02T05:52:41.112Z,1.50
2019-02-02T05:55:12.271Z,1.60
2019-02-02T05:57:40.950Z,1.80
2019-02-02T06:00:14.436Z,1.90
2019-02-02T06:02:42.946Z,2.00
2019-02-02T06:05:11.415Z,2.00
2019-02-02T06:07:39.887Z,2.10
2019-02-02T06:10:11.384Z,1.90
2019-02-02T06:12:39.799Z,1.90
2019-02-02T06:15:08.633Z,1.90
2019-02-02T06:17:37.051Z,1.70
2019-02-02T06:20:08.684Z,1.60
2019-02-02T06:22:37.084Z,1.70
2019-02-02T06:25:08.269Z,1.80
2019-02-02T06:27:36.676Z,1.80
2019-02-02T06:30:08.153Z,1.80
2019-02-02T06:32:36.587Z,1.80
2019-02-02T06:35:07.541Z,2.00
2019-02-02T06:37:35.951Z,2.10
2019-02-02T06:40:07.100Z,2.20
2019-02-02T06:42:35.512Z,2.20
2019-02-02T06:45:05.818Z,2.10
2019-02-02T06:47:34.287Z,1.90
2019-02-02T06:50:02.692Z,1.90
2019-02-02T06:52:31.211Z,1.70
2019-02-02T06:55:01.230Z,1.60
2019-02-02T06:57:29.635Z,1.70
2019-02-02T06:59:58.042Z,1.60
2019-02-02T07:02:26.463Z,1.70
2019-02-02T07:04:54.859Z,1.70
2019-02-02T07:07:23.281Z,1.80
2019-02-02T07:09:51.664Z,1.70
2019-02-02T07:12:20.107Z,1.90
2019-02-02T07:14:48.500Z,2.00
2019-02-02T07:17:16.899Z,2.20
2019-02-02T07:19:45.305Z,2.30
2019-02-02T07:22:13.695Z,2.00
2019-02-02T07:24:42.099Z,2.10
2019-02-02T07:27:10.509Z,2.10
2019-02-02T07:29:38.899Z,2.20
2019-02-02T07:32:07.300Z,2.20
2019-02-02T07:34:35.720Z,2.20
2019-02-02T07:37:04.196Z,2.10
2019-02-02T07:39:32.587Z,2.20
2019-02-02T07:42:01.362Z,2.20
2019-02-02T07:44:31.299Z,2.20
2019-02-02T07:46:59.704Z,2.20
2019-02-02T07:49:28.110Z,2.10
2019-02-02T07:51:56.556Z,2.00
2019-02-02T07:54:25.523Z,2.00
2019-02-02T07:56:53.936Z,2.00
2019-02-02T07:59:23.699Z,2.10
2019-02-02T08:01:52.106Z,2.30
2019-02-02T08:04:20.570Z,2.30
2019-02-02T08:06:48.961Z,2.50
2019-02-02T08:09:18.040Z,2.50
2019-02-02T08:11:46.428Z,2.40
2019-02-02T08:14:14.816Z,2.10
2019-02-02T08:19:26.959Z,2.10
2019-02-02T08:21:55.383Z,2.30
2019-02-02T08:24:23.773Z,2.20
2019-02-02T08:26:52.196Z,2.20
2019-02-02T08:29:20.596Z,2.20
2019-02-02T08:31:49.011Z,2.30
2019-02-02T08:34:17.436Z,2.30
2019-02-02T08:36:45.860Z,2.50
2019-02-02T08:39:28.680Z,2.50
2019-02-02T08:41:47.524Z,2.50
2019-02-02T08:44:15.912Z,2.50
2019-02-02T08:46:44.324Z,2.40
2019-02-02T08:49:12.771Z,2.60
2019-02-02T08:51:41.268Z,2.70
2019-02-02T08:54:09.673Z,2.70
2019-02-02T08:56:38.113Z,2.90
2019-02-02T08:59:06.649Z,3.00
2019-02-02T09:01:35.064Z,3.00
2019-02-02T09:04:03.533Z,3.10
2019-02-02T09:06:39.049Z,3.20
2019-02-02T09:09:02.587Z,3.10
2019-02-02T09:11:31.002Z,3.20
2019-02-02T09:13:59.409Z,3.20
2019-02-02T09:16:27.859Z,3.00
2019-02-02T09:18:56.275Z,3.20
2019-02-02T09:21:24.709Z,3.10
2019-02-02T09:23:53.128Z,2.90
2019-02-02T09:26:21.524Z,3.00
2019-02-02T09:28:49.960Z,3.00
2019-02-02T09:31:18.381Z,3.00
2019-02-02T09:33:46.804Z,3.10
2019-02-02T09:36:16.958Z,2.90
2019-02-02T09:38:45.520Z,2.90
2019-02-02T09:41:13.931Z,3.10
2019-02-02T09:43:42.366Z,2.90
2019-02-02T09:46:10.771Z,2.80
2019-02-02T09:48:39.176Z,2.80
2019-02-02T09:51:07.656Z,3.00
2019-02-02T09:53:36.056Z,3.00
2019-02-02T09:56:06.004Z,3.10
2019-02-02T09:58:34.462Z,3.10
2019-02-02T10:01:02.868Z,3.00
2019-02-02T10:03:31.272Z,3.00
2019-02-02T10:05:59.712Z,2.90
2019-02-02T10:08:28.356Z,2.90
2019-02-02T10:10:56.808Z,3.00
2019-02-02T10:13:25.217Z,3.10
2019-02-02T10:15:53.639Z,3.30
2019-02-02T10:18:22.186Z,3.40
2019-02-02T10:20:50.606Z,3.30
2019-02-02T10:23:19.101Z,3.30
2019-02-02T10:25:47.500Z,3.40
2019-02-02T10:28:15.907Z,3.40
2019-02-02T10:30:44.465Z,3.40
2019-02-02T10:33:13.013Z,3.30
2019-02-02T10:35:41.412Z,3.30
2019-02-02T10:38:09.882Z,3.20
2019-02-02T10:40:38.382Z,3.20
2019-02-02T10:43:06.882Z,3.30
2019-02-02T10:45:35.435Z,3.40
2019-02-02T10:48:04.228Z,3.60
2019-02-02T10:50:32.658Z,3.50
2019-02-02T10:53:01.128Z,3.50
2019-02-02T10:55:29.574Z,3.40
2019-02-02T10:57:58.437Z,3.30
2019-02-02T11:00:29.172Z,3.40
2019-02-02T11:02:57.863Z,3.50
2019-02-02T11:05:26.815Z,3.40
2019-02-02T11:07:55.366Z,3.30
2019-02-02T11:10:31.655Z,3.30
2019-02-02T11:13:00.131Z,3.30
2019-02-02T11:15:28.774Z,3.30
2019-02-02T11:17:57.319Z,3.40
2019-02-02T11:20:33.861Z,3.40
2019-02-02T11:23:02.631Z,3.40
2019-02-02T11:25:31.238Z,3.30
2019-02-02T11:27:59.774Z,3.10
2019-02-02T11:30:29.081Z,3.00
2019-02-02T11:32:57.827Z,3.10
2019-02-02T11:35:26.333Z,3.10
2019-02-02T11:37:54.964Z,3.20
2019-02-02T11:40:31.780Z,3.30
2019-02-02T11:43:00.362Z,3.10
2019-02-02T11:45:28.988Z,3.10
2019-02-02T11:47:57.557Z,3.20
2019-02-02T11:50:26.141Z,3.10
2019-02-02T11:52:54.689Z,3.10
2019-02-02T11:55:27.065Z,3.10
2019-02-02T11:57:55.722Z,3.20
2019-02-02T12:00:38.676Z,3.10
2019-02-02T12:03:07.261Z,3.00
2019-02-02T12:05:35.670Z,3.10
2019-02-02T12:08:04.416Z,3.00
2019-02-02T12:10:34.254Z,3.10
2019-02-02T12:13:02.858Z,2.80
2019-02-02T12:15:31.355Z,2.90
2019-02-02T12:17:59.841Z,2.90
2019-02-02T12:20:28.341Z,2.90
2019-02-02T12:22:56.892Z,2.80
2019-02-02T12:25:25.440Z,2.90
2019-02-02T12:27:53.902Z,2.70
2019-02-02T12:30:27.852Z,2.60
2019-02-02T12:32:56.259Z,2.60
2019-02-02T12:35:26.492Z,2.70
2019-02-02T12:37:55.287Z,2.80
2019-02-02T12:40:25.244Z,2.80
2019-02-02T12:42:53.650Z,2.80
2019-02-02T12:45:30.765Z,2.80
2019-02-02T12:47:59.559Z,2.80
2019-02-02T12:50:27.988Z,2.70
2019-02-02T12:52:56.520Z,2.70
2019-02-02T12:55:26.033Z,2.80
2019-02-02T12:57:54.597Z,2.70
2019-02-02T13:00:23.089Z,2.60
2019-02-02T13:02:51.558Z,2.70
2019-02-02T13:05:22.492Z,2.70
2019-02-02T13:07:50.984Z,2.60
2019-02-02T13:10:24.404Z,2.70
2019-02-02T13:12:52.007Z,2.80
2019-02-02T13:15:20.391Z,2.70
2019-02-02T13:17:48.853Z,2.80
2019-02-02T13:20:17.994Z,2.80
2019-02-02T13:22:46.567Z,2.80
2019-02-02T13:25:17.129Z,2.60
2019-02-02T13:27:45.520Z,2.50
2019-02-02T13:30:19.732Z,2.40
2019-02-02T13:32:50.018Z,2.40
2019-02-02T13:35:19.394Z,2.30
2019-02-02T13:37:47.788Z,2.40
2019-02-02T13:40:18.948Z,2.30
2019-02-02T13:42:47.423Z,2.20
2019-02-02T13:45:18.076Z,2.30
2019-02-02T13:47:46.492Z,2.10
2019-02-02T13:50:16.644Z,2.10
2019-02-02T13:52:45.887Z,1.90
2019-02-02T13:55:14.435Z,2.00
2019-02-02T13:57:44.493Z,2.00
2019-02-02T14:00:21.843Z,2.00
2019-02-02T14:03:01.428Z,2.20
2019-02-02T14:05:20.517Z,2.30
2019-02-02T14:07:48.912Z,2.20
2019-02-02T14:10:25.409Z,2.10
2019-02-02T14:12:53.877Z,2.10
2019-02-02T14:15:22.343Z,2.20
2019-02-02T14:17:50.751Z,2.30
2019-02-02T14:20:19.221Z,2.20
2019-02-02T14:22:47.766Z,2.20
2019-02-02T14:25:17.309Z,2.10
2019-02-02T14:27:45.945Z,2.20
2019-02-02T14:30:16.704Z,2.20
2019-02-02T14:32:45.111Z,2.20
2019-02-02T14:35:18.900Z,2.20
2019-02-02T14:37:47.397Z,1.80
2019-02-02T14:40:18.050Z,1.90
2019-02-02T14:42:46.748Z,1.90
2019-02-02T14:45:21.640Z,1.90
2019-02-02T14:47:50.331Z,2.00
2019-02-02T14:50:22.136Z,2.00
2019-02-02T14:52:51.977Z,2.00
2019-02-02T14:55:22.928Z,1.80
2019-02-02T14:57:51.414Z,1.70
2019-02-02T15:00:22.532Z,1.70
2019-02-02T15:02:50.950Z,1.70
2019-02-02T15:05:21.162Z,1.70
2019-02-02T15:07:50.057Z,1.80
2019-02-02T15:10:18.800Z,1.80
2019-02-02T15:12:47.267Z,1.90
2019-02-02T15:15:17.918Z,1.90
2019-02-02T15:17:46.379Z,2.00
2019-02-02T15:20:26.461Z,1.80
2019-02-02T15:22:54.893Z,1.70
2019-02-02T15:25:23.287Z,1.90
2019-02-02T15:27:52.535Z,1.90
2019-02-02T15:30:26.108Z,2.00
2019-02-02T15:32:54.683Z,2.00
2019-02-02T15:35:23.307Z,1.80
2019-02-02T15:37:53.048Z,1.70
2019-02-02T15:40:21.994Z,1.70
2019-02-02T15:42:50.455Z,1.80
2019-02-02T15:45:24.107Z,2.00
2019-02-02T15:47:52.496Z,2.00
2019-02-02T15:50:20.989Z,1.90
2019-02-02T15:52:49.615Z,1.90
2019-02-02T15:55:19.952Z,1.80
2019-02-02T15:57:48.519Z,1.70
2019-02-02T16:00:22.502Z,1.50
2019-02-02T16:02:50.916Z,1.60
2019-02-02T16:05:20.581Z,1.60
2019-02-02T16:07:49.447Z,1.50
2019-02-02T16:10:22.712Z,1.60
2019-02-02T16:12:51.368Z,1.70
2019-02-02T16:15:19.776Z,1.90
2019-02-02T16:17:48.244Z,2.00
2019-02-02T16:20:22.574Z,2.00
2019-02-02T16:22:50.984Z,1.80
2019-02-02T16:25:19.422Z,1.60
2019-02-02T16:27:47.824Z,1.60
2019-02-02T16:30:24.996Z,1.50
2019-02-02T16:32:53.417Z,1.50
2019-02-02T16:35:22.094Z,1.60
2019-02-02T16:37:50.492Z,1.60
2019-02-02T16:40:21.657Z,1.50
2019-02-02T16:42:53.343Z,1.50
2019-02-02T16:45:22.722Z,1.40
2019-02-02T16:47:51.394Z,1.30
2019-02-02T16:50:20.054Z,1.30
2019-02-02T16:52:48.445Z,1.40
2019-02-02T16:55:18.184Z,1.30
2019-02-02T16:57:46.622Z,1.50
2019-02-02T17:00:21.138Z,1.50
2019-02-02T17:02:49.864Z,1.60
2019-02-02T17:05:18.422Z,1.70
2019-02-02T17:07:46.912Z,1.70
2019-02-02T17:10:20.690Z,1.70
2019-02-02T17:12:49.257Z,1.60
2019-02-02T17:15:18.063Z,1.40
2019-02-02T17:17:46.527Z,1.40
2019-02-02T17:20:26.825Z,1.50
2019-02-02T17:22:55.294Z,1.40
2019-02-02T17:25:23.860Z,1.30
2019-02-02T17:27:52.326Z,1.30
2019-02-02T17:30:23.267Z,1.40
2019-02-02T17:32:52.520Z,1.40
2019-02-02T17:35:21.011Z,1.30
2019-02-02T17:37:49.403Z,1.20
2019-02-02T17:40:20.068Z,1.20
2019-02-02T17:42:48.476Z,1.10
2019-02-02T17:45:19.111Z,1.30
2019-02-02T17:47:47.612Z,1.50
2019-02-02T17:50:18.432Z,1.50
2019-02-02T17:52:46.904Z,1.50
2019-02-02T17:55:15.561Z,1.50
2019-02-02T17:57:44.045Z,1.40
2019-02-02T18:00:22.986Z,1.50
2019-02-02T18:02:51.384Z,1.60
2019-02-02T18:05:19.798Z,1.70
2019-02-02T18:07:48.219Z,1.80
2019-02-02T18:10:17.371Z,1.80
2019-02-02T18:12:45.838Z,1.70
2019-02-02T18:15:15.701Z,1.60
2019-02-02T18:17:44.116Z,1.60
2019-02-02T18:20:14.768Z,1.60
2019-02-02T18:22:43.520Z,1.60
2019-02-02T18:25:16.232Z,1.50
2019-02-02T18:27:44.692Z,1.50
2019-02-02T18:30:21.779Z,1.50
2019-02-02T18:32:50.787Z,1.60
2019-02-02T18:35:19.255Z,1.60
2019-02-02T18:37:47.803Z,1.60
2019-02-02T18:40:19.262Z,1.50
2019-02-02T18:42:47.803Z,1.50
2019-02-02T18:45:21.936Z,1.30
2019-02-02T18:47:50.536Z,1.40
2019-02-02T18:50:18.935Z,1.40
2019-02-02T18:52:49.007Z,1.40
2019-02-02T18:55:20.499Z,1.40
2019-02-02T18:57:48.907Z,1.40
2019-02-02T19:00:19.524Z,1.40
2019-02-02T19:02:48.357Z,1.40
2019-02-02T19:05:16.933Z,1.50
2019-02-02T19:07:45.356Z,1.50
2019-02-02T19:10:18.591Z,1.60
2019-02-02T19:12:47.066Z,1.60
2019-02-02T19:15:15.640Z,1.50
2019-02-02T19:17:44.046Z,1.50
2019-02-02T19:20:15.171Z,1.40
2019-02-02T19:22:43.693Z,1.40
2019-02-02T19:25:12.553Z,1.40
2019-02-02T19:27:40.959Z,1.40
2019-02-02T19:30:27.196Z,1.30
2019-02-02T19:32:55.617Z,1.40
2019-02-02T19:35:24.103Z,1.50
2019-02-02T19:37:52.815Z,1.50
2019-02-02T19:40:21.304Z,1.40
2019-02-02T19:42:49.698Z,1.50
2019-02-02T19:45:24.096Z,1.50
2019-02-02T19:47:52.517Z,1.50
2019-02-02T19:50:23.738Z,1.50
2019-02-02T19:52:52.441Z,1.40
2019-02-02T19:55:20.928Z,1.40
2019-02-02T19:57:49.487Z,1.50
2019-02-02T20:00:22.972Z,1.30
2019-02-02T20:02:51.410Z,1.30
2019-02-02T20:05:27.978Z,1.50
2019-02-02T20:07:50.176Z,1.50
2019-02-02T20:10:19.259Z,1.50
2019-02-02T20:12:47.749Z,1.60
2019-02-02T20:15:21.180Z,1.60
2019-02-02T20:17:49.732Z,1.60
2019-02-02T20:20:19.920Z,1.50
2019-02-02T20:22:48.495Z,1.40
2019-02-02T20:25:16.925Z,1.40
2019-02-02T20:27:45.468Z,1.50
2019-02-02T20:30:21.612Z,1.50
2019-02-02T20:32:50.100Z,1.40
2019-02-02T20:35:18.505Z,1.40
2019-02-02T20:37:46.990Z,1.30
2019-02-02T20:40:17.900Z,1.30
2019-02-02T20:42:46.396Z,1.40
2019-02-02T20:45:17.432Z,1.40
2019-02-02T20:47:45.846Z,1.50
2019-02-02T20:50:16.383Z,1.60
2019-02-02T20:52:47.383Z,1.70
2019-02-02T20:55:23.308Z,1.70
2019-02-02T20:57:52.001Z,1.70
2019-02-02T21:00:22.524Z,1.60
2019-02-02T21:02:51.077Z,1.60
2019-02-02T21:05:19.528Z,1.50
2019-02-02T21:07:47.943Z,1.50
2019-02-02T21:10:24.175Z,1.50
2019-02-02T21:12:52.669Z,1.30
2019-02-02T21:15:21.132Z,1.40
2019-02-02T21:17:49.562Z,1.50
2019-02-02T21:20:30.746Z,1.50
2019-02-02T21:22:59.310Z,1.50
2019-02-02T21:25:27.723Z,1.60
2019-02-02T21:27:56.218Z,1.60
2019-02-02T21:30:32.750Z,1.60
2019-02-02T21:33:01.250Z,1.70
2019-02-02T21:35:29.703Z,1.80
2019-02-02T21:37:58.245Z,1.90
2019-02-02T21:40:29.179Z,1.80
2019-02-02T21:42:57.691Z,1.80
2019-02-02T21:45:26.202Z,1.80
2019-02-02T21:47:55.273Z,1.90
2019-02-02T21:50:25.351Z,1.90
2019-02-02T21:52:54.522Z,1.70
2019-02-02T21:55:28.376Z,1.70
2019-02-02T21:57:56.818Z,1.70
2019-02-02T22:00:28.705Z,1.70
2019-02-02T22:02:57.272Z,1.70
2019-02-02T22:05:25.706Z,1.60
2019-02-02T22:07:54.123Z,1.60
2019-02-02T22:10:22.607Z,1.60
2019-02-02T22:12:52.935Z,1.70
2019-02-02T22:15:26.350Z,1.70
2019-02-02T22:17:54.850Z,1.70
2019-02-02T22:20:23.321Z,1.50
2019-02-02T22:22:51.717Z,1.40
2019-02-02T22:25:22.716Z,1.40
2019-02-02T22:27:51.197Z,1.50
2019-02-02T22:30:25.491Z,1.40
2019-02-02T22:32:53.980Z,1.50
2019-02-02T22:35:22.706Z,1.60
2019-02-02T22:37:51.115Z,1.60
2019-02-02T22:40:22.319Z,1.70
2019-02-02T22:42:50.952Z,1.50
2019-02-02T22:45:20.304Z,1.60
2019-02-02T22:47:48.956Z,1.60
2019-02-02T22:50:19.906Z,1.50
2019-02-02T22:52:48.641Z,1.50
2019-02-02T22:55:18.628Z,1.50
2019-02-02T22:57:47.355Z,1.50
2019-02-02T23:00:34.921Z,1.50
2019-02-02T23:03:03.454Z,1.50
2019-02-02T23:05:37.847Z,1.50
2019-02-02T23:08:09.335Z,1.50
2019-02-02T23:10:43.640Z,1.50
2019-02-02T23:13:24.582Z,1.50
2019-02-02T23:16:07.818Z,1.60
2019-02-02T23:18:36.243Z,1.40
2019-02-02T23:21:06.192Z,1.40
2019-02-02T23:23:34.620Z,1.40
2019-02-02T23:26:03.379Z,1.50
2019-02-02T23:28:32.675Z,1.40
2019-02-02T23:31:01.072Z,1.50
2019-02-02T23:33:29.725Z,1.50
2019-02-02T23:35:58.291Z,1.60
2019-02-02T23:38:26.722Z,1.60
2019-02-02T23:40:55.131Z,1.70
2019-02-02T23:43:23.605Z,1.70
2019-02-02T23:45:52.005Z,1.60
2019-02-02T23:48:20.433Z,1.60
2019-02-02T23:50:48.927Z,1.60
2019-02-02T23:53:17.336Z,1.50
2019-02-02T23:55:45.756Z,1.60
2019-02-02T23:58:14.160Z,1.60
